createdAt,value
2019-04-11T00:11:00.319Z,13.09
2019-04-11T00:13:33.417Z,13.18
2019-04-11T00:16:15.172Z,13.20
2019-04-11T00:18:45.713Z,13.22
2019-04-11T00:21:26.851Z,13.21
2019-04-11T00:23:58.667Z,13.23
2019-04-11T00:26:33.947Z,13.26
2019-04-11T00:29:05.949Z,13.30
2019-04-11T00:31:41.151Z,13.30
2019-04-11T00:34:12.964Z,13.29
2019-04-11T00:36:48.531Z,13.25
2019-04-11T00:39:19.498Z,13.33
2019-04-11T00:52:53.730Z,13.18
2019-04-11T00:55:24.096Z,13.10
2019-04-11T01:08:33.078Z,12.94
2019-04-11T01:11:05.706Z,12.96
2019-04-11T01:25:04.484Z,12.80
2019-04-11T01:27:36.147Z,12.68
2019-04-11T01:45:23.818Z,12.65
2019-04-11T01:47:59.462Z,12.54
2019-04-11T02:01:50.412Z,12.48
2019-04-11T02:04:23.769Z,12.43
2019-04-11T02:18:01.324Z,12.59
2019-04-11T02:20:33.345Z,12.57
2019-04-11T02:23:13.179Z,12.57
2019-04-11T02:26:03.015Z,12.59
2019-04-11T02:28:39.036Z,12.59
2019-04-11T02:31:11.702Z,12.61
2019-04-11T02:33:51.162Z,12.62
2019-04-11T02:36:22.602Z,12.56
2019-04-11T02:39:06.260Z,12.57
2019-04-11T02:41:35.890Z,12.57
2019-04-11T02:55:13.015Z,12.45
2019-04-11T02:57:43.185Z,12.48
2019-04-11T03:00:15.903Z,12.46
2019-04-11T03:02:53.515Z,12.46
2019-04-11T03:05:26.757Z,12.39
2019-04-11T03:08:07.960Z,12.37
2019-04-11T03:10:37.780Z,12.35
2019-04-11T03:13:16.764Z,12.33
2019-04-11T03:15:59.504Z,12.31
2019-04-11T03:18:45.818Z,12.31
2019-04-11T03:21:04.593Z,12.33
2019-04-11T03:23:39.507Z,12.33
2019-04-11T03:26:12.370Z,12.34
2019-04-11T03:28:53.708Z,12.39
2019-04-11T03:32:04.958Z,12.45
2019-04-11T03:34:51.780Z,12.49
2019-04-11T03:37:15.240Z,12.44
2019-04-11T03:39:39.474Z,12.43
2019-04-11T03:42:07.919Z,12.40
2019-04-11T04:06:38.998Z,12.30
2019-04-11T04:09:10.891Z,12.38
2019-04-11T04:11:51.265Z,12.43
2019-04-11T04:14:45.272Z,12.46
2019-04-11T04:28:00.872Z,12.81
2019-04-11T04:30:33.678Z,12.75
2019-04-11T04:44:31.614Z,12.79
2019-04-11T04:47:15.677Z,12.76
2019-04-11T04:49:43.681Z,12.77
2019-04-11T04:52:16.435Z,12.76
2019-04-11T04:54:59.426Z,12.79
2019-04-11T04:57:33.289Z,12.83
2019-04-11T05:00:11.824Z,12.89
2019-04-11T05:02:44.250Z,12.93
2019-04-11T05:20:09.192Z,13.13
2019-04-11T05:22:40.200Z,13.32
2019-04-11T05:25:12.609Z,13.36
2019-04-11T05:27:43.913Z,13.46
2019-04-11T05:30:19.220Z,13.52
2019-04-11T05:32:50.909Z,13.69
2019-04-11T05:46:35.284Z,14.17
2019-04-11T05:49:05.299Z,14.39
2019-04-11T05:51:45.730Z,14.35
2019-04-11T05:54:16.309Z,14.30
2019-04-11T06:07:58.599Z,14.16
2019-04-11T06:10:48.398Z,14.11
2019-04-11T06:24:39.193Z,14.48
2019-04-11T06:27:17.290Z,14.71
2019-04-11T06:30:05.502Z,14.92
2019-04-11T06:32:56.298Z,15.15
2019-04-11T06:35:48.429Z,15.40
2019-04-11T06:38:38.662Z,15.90
2019-04-11T06:52:12.823Z,16.31
2019-04-11T06:55:04.567Z,16.48
2019-04-11T06:57:43.876Z,16.61
2019-04-11T07:00:17.089Z,16.69
2019-04-11T07:14:27.085Z,16.25
2019-04-11T07:17:16.855Z,16.73
2019-04-11T07:20:43.762Z,16.76
2019-04-11T07:23:33.042Z,17.00
2019-04-11T07:30:42.847Z,17.20
2019-04-11T07:33:20.184Z,17.12
2019-04-11T07:36:12.392Z,17.81
2019-04-11T07:38:52.403Z,17.75
2019-04-11T07:41:34.096Z,17.97
2019-04-11T07:55:02.631Z,17.42
2019-04-11T07:57:34.781Z,17.34
2019-04-11T08:11:13.489Z,17.50
2019-04-11T08:14:04.216Z,17.95
2019-04-11T08:20:33.295Z,18.57
2019-04-11T08:23:06.002Z,17.86
2019-04-11T08:25:45.538Z,17.72
2019-04-11T08:28:20.652Z,17.90
2019-04-11T08:31:05.826Z,18.53
2019-04-11T08:33:42.923Z,18.46
2019-04-11T08:36:17.715Z,18.28
2019-04-11T08:38:59.052Z,18.54
2019-04-11T08:41:35.757Z,18.54
2019-04-11T08:44:13.500Z,19.08
2019-04-11T08:46:46.863Z,19.57
2019-04-11T09:00:24.287Z,21.52
2019-04-11T09:02:57.536Z,21.44
2019-04-11T09:17:01.789Z,22.13
2019-04-11T09:19:45.206Z,22.32
2019-04-11T09:33:39.401Z,23.60
2019-04-11T09:36:30.309Z,23.13
2019-04-11T09:50:46.940Z,24.24
2019-04-11T09:53:20.695Z,24.32
2019-04-11T09:56:06.894Z,25.13
2019-04-11T09:58:38.124Z,25.29
2019-04-11T10:01:35.105Z,25.44
2019-04-11T10:04:06.937Z,25.62
2019-04-11T10:06:46.568Z,25.79
2019-04-11T10:09:19.724Z,25.39
2019-04-11T10:12:17.928Z,25.50
2019-04-11T10:14:50.313Z,25.19
2019-04-11T10:28:04.847Z,24.25
2019-04-11T10:30:44.119Z,23.90
2019-04-11T10:44:51.933Z,23.76
2019-04-11T10:47:25.030Z,25.50
2019-04-11T10:50:20.056Z,24.69
2019-04-11T10:52:53.117Z,24.62
2019-04-11T10:59:17.588Z,24.17
2019-04-11T11:01:50.819Z,26.15
2019-04-11T11:04:34.737Z,27.76
2019-04-11T11:07:10.203Z,26.36
2019-04-11T11:16:50.757Z,30.12
2019-04-11T11:19:50.133Z,30.98
2019-04-11T11:22:17.127Z,31.51
2019-04-11T11:25:11.639Z,31.94
2019-04-11T11:31:11.923Z,32.26
2019-04-11T11:33:44.929Z,31.50
2019-04-11T11:36:37.492Z,32.89
2019-04-11T11:39:15.155Z,32.68
2019-04-11T11:42:04.177Z,33.36
2019-04-11T11:44:37.126Z,33.99
2019-04-11T11:58:31.304Z,34.09
2019-04-11T12:01:08.950Z,34.18
2019-04-11T12:14:59.927Z,33.39
2019-04-11T12:17:49.255Z,32.69
2019-04-11T12:35:30.839Z,33.79
2019-04-11T12:38:03.191Z,35.07
2019-04-11T12:52:45.669Z,34.65
2019-04-11T12:55:18.239Z,34.79
2019-04-11T12:58:03.842Z,35.36
2019-04-11T13:00:43.367Z,34.72
2019-04-11T13:13:55.169Z,33.88
2019-04-11T13:16:28.927Z,34.89
2019-04-11T13:19:01.812Z,35.29
2019-04-11T13:21:47.634Z,35.04
2019-04-11T13:24:28.369Z,34.06
2019-04-11T13:27:13.461Z,34.75
2019-04-11T13:30:10.178Z,33.52
2019-04-11T13:32:42.753Z,33.06
2019-04-11T13:35:21.573Z,33.23
2019-04-11T13:37:57.545Z,34.66
2019-04-11T13:40:45.671Z,32.66
2019-04-11T13:43:20.533Z,32.70
2019-04-11T13:46:10.311Z,32.21
2019-04-11T13:48:48.840Z,32.83
2019-04-11T13:51:30.915Z,33.03
2019-04-11T13:54:38.750Z,33.59
2019-04-11T13:57:29.319Z,32.69
2019-04-11T14:11:31.532Z,32.02
2019-04-11T14:14:20.899Z,30.04
2019-04-11T14:28:16.577Z,32.08
2019-04-11T14:31:02.265Z,32.41
2019-04-11T14:33:45.188Z,31.94
2019-04-11T14:36:36.617Z,32.07
2019-04-11T14:39:15.661Z,32.51
2019-04-11T14:41:54.760Z,32.01
2019-04-11T14:55:58.023Z,31.53
2019-04-11T14:58:31.312Z,30.81
2019-04-11T15:08:01.376Z,30.19
2019-04-11T15:10:34.800Z,30.18
2019-04-11T15:23:40.894Z,29.41
2019-04-11T15:26:13.038Z,29.28
2019-04-11T15:28:57.138Z,28.97
2019-04-11T15:31:46.292Z,28.44
2019-04-11T15:58:47.157Z,20.58
2019-04-11T16:01:36.117Z,20.51
2019-04-11T16:04:23.540Z,20.36
2019-04-11T16:07:09.424Z,20.14
2019-04-11T16:09:42.756Z,20.03
2019-04-11T16:12:36.040Z,19.80
2019-04-11T16:15:14.704Z,19.72
2019-04-11T16:18:02.329Z,19.66
2019-04-11T16:20:33.281Z,19.57
2019-04-11T16:23:27.041Z,19.37
2019-04-11T16:25:58.691Z,19.25
2019-04-11T16:28:46.075Z,18.99
2019-04-11T16:31:18.997Z,18.59
2019-04-11T16:45:18.284Z,18.37
2019-04-11T16:47:51.055Z,18.14
2019-04-11T16:50:29.554Z,18.09
2019-04-11T16:53:01.552Z,18.02
2019-04-11T17:17:45.500Z,17.72
2019-04-11T17:20:16.745Z,17.69
2019-04-11T17:34:13.508Z,17.33
2019-04-11T17:36:44.637Z,17.22
2019-04-11T17:39:21.991Z,17.14
2019-04-11T17:41:52.612Z,16.99
2019-04-11T17:55:52.026Z,16.60
2019-04-11T17:58:26.980Z,16.57
2019-04-11T18:12:18.662Z,16.44
2019-04-11T18:14:49.954Z,16.36
2019-04-11T18:27:55.237Z,16.23
2019-04-11T18:30:26.425Z,16.15
2019-04-11T18:43:25.551Z,15.93
2019-04-11T18:45:56.392Z,15.82
2019-04-11T18:59:49.608Z,15.57
2019-04-11T19:02:20.861Z,15.46
2019-04-11T19:04:57.968Z,15.33
2019-04-11T19:07:28.684Z,15.38
2019-04-11T19:10:06.944Z,15.32
2019-04-11T19:12:37.417Z,15.21
2019-04-11T19:15:16.730Z,15.25
2019-04-11T19:17:48.026Z,15.24
2019-04-11T19:44:59.683Z,15.03
2019-04-11T19:47:30.257Z,14.90
2019-04-11T19:50:08.517Z,14.77
2019-04-11T19:52:45.831Z,14.69
2019-04-11T19:55:20.876Z,14.62
2019-04-11T19:57:51.311Z,14.56
2019-04-11T20:07:02.636Z,14.44
2019-04-11T20:09:33.568Z,14.37
2019-04-11T20:12:10.448Z,14.28
2019-04-11T20:14:42.304Z,14.20
2019-04-11T20:17:19.859Z,14.16
2019-04-11T20:20:00.942Z,14.13
2019-04-11T20:33:55.998Z,13.99
2019-04-11T20:36:33.272Z,13.81
2019-04-11T20:39:20.112Z,13.67
2019-04-11T20:41:54.185Z,13.63
2019-04-11T20:55:32.696Z,13.47
2019-04-11T20:58:03.597Z,13.47
2019-04-11T21:12:01.194Z,13.14
2019-04-11T21:14:32.033Z,13.00
2019-04-11T21:17:10.169Z,12.95
2019-04-11T21:19:41.719Z,12.90
2019-04-11T21:22:18.455Z,12.89
2019-04-11T21:24:49.395Z,12.91
2019-04-11T21:27:28.962Z,12.88
2019-04-11T21:30:00.609Z,12.88
2019-04-11T21:44:05.856Z,12.76
2019-04-11T21:46:37.367Z,12.76
2019-04-11T21:49:13.034Z,12.74
2019-04-11T21:51:44.709Z,12.72
2019-04-11T21:54:23.368Z,12.72
2019-04-11T21:56:56.112Z,12.75
2019-04-11T22:10:52.967Z,12.35
2019-04-11T22:13:23.941Z,12.21
2019-04-11T22:26:30.834Z,12.09
2019-04-11T22:29:02.082Z,12.14
2019-04-11T22:31:39.105Z,12.15
2019-04-11T22:34:12.156Z,12.14
2019-04-11T22:48:08.664Z,12.14
2019-04-11T22:50:40.635Z,12.09
2019-04-11T23:04:33.835Z,11.96
2019-04-11T23:07:04.533Z,11.84
2019-04-11T23:09:41.754Z,11.92
2019-04-11T23:12:15.207Z,11.91
2019-04-11T23:14:51.839Z,11.91
2019-04-11T23:17:23.093Z,11.88
2019-04-11T23:20:00.658Z,11.85
2019-04-11T23:22:32.295Z,11.81
2019-04-11T23:36:15.292Z,11.69
2019-04-11T23:38:46.034Z,11.67
2019-04-11T23:51:56.426Z,11.71
2019-04-11T23:54:29.809Z,11.71
